sensor_id;sensor_type;location;lat;lon;timestamp;P1;durP1;ratioP1;P2;durP2;ratioP2
9007;SDS011;62813;51.424;6.762;2023-05-13T00:01:17;11.83;;;8.43;;
9007;SDS011;62813;51.424;6.762;2023-05-13T00:03:44;10.03;;;8.90;;
9007;SDS011;62813;51.424;6.762;2023-05-13T00:06:11;10.17;;;8.83;;
9007;SDS011;62813;51.424;6.762;2023-05-13T00:08:38;10.60;;;8.87;;
9007;SDS011;62813;51.424;6.762;2023-05-13T00:11:04;10.70;;;9.07;;
9007;SDS011;62813;51.424;6.762;2023-05-13T00:13:31;10.17;;;8.97;;
9007;SDS011;62813;51.424;6.762;2023-05-13T00:15:58;12.93;;;8.60;;
9007;SDS011;62813;51.424;6.762;2023-05-13T00:18:24;9.23;;;8.33;;
9007;SDS011;62813;51.424;6.762;2023-05-13T00:20:51;13.17;;;8.83;;
9007;SDS011;62813;51.424;6.762;2023-05-13T00:23:18;11.27;;;8.43;;
9007;SDS011;62813;51.424;6.762;2023-05-13T00:25:45;11.77;;;9.00;;
9007;SDS011;62813;51.424;6.762;2023-05-13T00:28:12;10.77;;;9.43;;
9007;SDS011;62813;51.424;6.762;2023-05-13T00:30:41;11.23;;;8.67;;
9007;SDS011;62813;51.424;6.762;2023-05-13T00:33:08;11.13;;;8.67;;
9007;SDS011;62813;51.424;6.762;2023-05-13T00:35:35;10.83;;;8.57;;
9007;SDS011;62813;51.424;6.762;2023-05-13T00:38:02;11.40;;;8.90;;
9007;SDS011;62813;51.424;6.762;2023-05-13T00:40:29;10.03;;;7.97;;
9007;SDS011;62813;51.424;6.762;2023-05-13T00:42:56;9.20;;;8.30;;
9007;SDS011;62813;51.424;6.762;2023-05-13T00:45:22;9.50;;;8.13;;
9007;SDS011;62813;51.424;6.762;2023-05-13T00:47:49;10.10;;;9.03;;
9007;SDS011;62813;51.424;6.762;2023-05-13T00:50:16;9.03;;;8.13;;
9007;SDS011;62813;51.424;6.762;2023-05-13T00:52:43;10.00;;;8.07;;
9007;SDS011;62813;51.424;6.762;2023-05-13T00:55:09;9.93;;;8.43;;
9007;SDS011;62813;51.424;6.762;2023-05-13T00:57:36;9.33;;;8.47;;
9007;SDS011;62813;51.424;6.762;2023-05-13T01:00:03;9.50;;;8.53;;
9007;SDS011;62813;51.424;6.762;2023-05-13T01:02:36;12.20;;;8.17;;
9007;SDS011;62813;51.424;6.762;2023-05-13T01:10:41;9.93;;;8.50;;
9007;SDS011;62813;51.424;6.762;2023-05-13T01:13:10;8.90;;;7.83;;
9007;SDS011;62813;51.424;6.762;2023-05-13T01:15:44;10.33;;;8.47;;
9007;SDS011;62813;51.424;6.762;2023-05-13T01:18:14;10.07;;;8.90;;
9007;SDS011;62813;51.424;6.762;2023-05-13T01:20:44;10.87;;;8.20;;
9007;SDS011;62813;51.424;6.762;2023-05-13T01:23:11;10.83;;;8.87;;
9007;SDS011;62813;51.424;6.762;2023-05-13T01:25:38;9.53;;;8.53;;
9007;SDS011;62813;51.424;6.762;2023-05-13T01:28:06;10.07;;;8.67;;
9007;SDS011;62813;51.424;6.762;2023-05-13T01:30:33;9.53;;;8.60;;
9007;SDS011;62813;51.424;6.762;2023-05-13T01:32:59;8.97;;;8.17;;
9007;SDS011;62813;51.424;6.762;2023-05-13T01:35:27;11.70;;;8.83;;
9007;SDS011;62813;51.424;6.762;2023-05-13T01:37:55;9.63;;;8.27;;
9007;SDS011;62813;51.424;6.762;2023-05-13T01:40:22;9.10;;;8.30;;
9007;SDS011;62813;51.424;6.762;2023-05-13T01:42:58;11.20;;;8.70;;
9007;SDS011;62813;51.424;6.762;2023-05-13T01:45:26;9.77;;;8.20;;
9007;SDS011;62813;51.424;6.762;2023-05-13T01:47:52;14.33;;;8.03;;
9007;SDS011;62813;51.424;6.762;2023-05-13T01:50:19;9.90;;;8.13;;
9007;SDS011;62813;51.424;6.762;2023-05-13T01:52:46;8.40;;;7.60;;
9007;SDS011;62813;51.424;6.762;2023-05-13T01:55:13;9.40;;;8.50;;
9007;SDS011;62813;51.424;6.762;2023-05-13T01:57:40;14.33;;;9.20;;
9007;SDS011;62813;51.424;6.762;2023-05-13T02:00:06;8.63;;;7.87;;
9007;SDS011;62813;51.424;6.762;2023-05-13T02:02:33;9.80;;;8.80;;
9007;SDS011;62813;51.424;6.762;2023-05-13T02:05:00;12.30;;;8.87;;
9007;SDS011;62813;51.424;6.762;2023-05-13T02:07:27;8.50;;;7.70;;
9007;SDS011;62813;51.424;6.762;2023-05-13T02:09:54;10.90;;;8.63;;
9007;SDS011;62813;51.424;6.762;2023-05-13T02:12:25;8.83;;;8.03;;
9007;SDS011;62813;51.424;6.762;2023-05-13T02:14:52;9.97;;;8.97;;
9007;SDS011;62813;51.424;6.762;2023-05-13T02:17:19;9.63;;;8.23;;
9007;SDS011;62813;51.424;6.762;2023-05-13T02:19:46;9.10;;;7.90;;
9007;SDS011;62813;51.424;6.762;2023-05-13T02:22:12;15.57;;;9.70;;
9007;SDS011;62813;51.424;6.762;2023-05-13T02:24:39;9.70;;;8.73;;
9007;SDS011;62813;51.424;6.762;2023-05-13T02:27:05;11.50;;;8.50;;
9007;SDS011;62813;51.424;6.762;2023-05-13T02:29:33;11.47;;;8.90;;
9007;SDS011;62813;51.424;6.762;2023-05-13T02:31:59;8.90;;;8.00;;
9007;SDS011;62813;51.424;6.762;2023-05-13T02:34:26;9.80;;;8.80;;
9007;SDS011;62813;51.424;6.762;2023-05-13T02:36:52;9.07;;;8.17;;
9007;SDS011;62813;51.424;6.762;2023-05-13T02:39:19;12.47;;;8.30;;
9007;SDS011;62813;51.424;6.762;2023-05-13T02:41:46;12.33;;;8.73;;
9007;SDS011;62813;51.424;6.762;2023-05-13T02:44:12;10.17;;;7.97;;
9007;SDS011;62813;51.424;6.762;2023-05-13T02:46:39;10.63;;;8.07;;
9007;SDS011;62813;51.424;6.762;2023-05-13T02:49:06;12.53;;;7.57;;
9007;SDS011;62813;51.424;6.762;2023-05-13T02:51:33;8.80;;;7.90;;
9007;SDS011;62813;51.424;6.762;2023-05-13T02:53:59;8.33;;;7.50;;
9007;SDS011;62813;51.424;6.762;2023-05-13T02:56:26;8.13;;;7.33;;
9007;SDS011;62813;51.424;6.762;2023-05-13T02:58:55;11.80;;;8.70;;
9007;SDS011;62813;51.424;6.762;2023-05-13T03:01:21;10.17;;;8.27;;
9007;SDS011;62813;51.424;6.762;2023-05-13T03:03:51;10.93;;;7.80;;
9007;SDS011;62813;51.424;6.762;2023-05-13T03:06:17;9.77;;;7.83;;
9007;SDS011;62813;51.424;6.762;2023-05-13T03:08:44;12.03;;;8.67;;
9007;SDS011;62813;51.424;6.762;2023-05-13T03:11:10;9.30;;;8.40;;
9007;SDS011;62813;51.424;6.762;2023-05-13T03:13:37;8.73;;;7.93;;
9007;SDS011;62813;51.424;6.762;2023-05-13T03:16:03;15.40;;;8.50;;
9007;SDS011;62813;51.424;6.762;2023-05-13T03:18:30;13.67;;;9.63;;
9007;SDS011;62813;51.424;6.762;2023-05-13T03:20:58;10.57;;;8.47;;
9007;SDS011;62813;51.424;6.762;2023-05-13T03:23:24;10.20;;;8.93;;
9007;SDS011;62813;51.424;6.762;2023-05-13T03:25:51;13.73;;;8.40;;
9007;SDS011;62813;51.424;6.762;2023-05-13T03:28:18;9.47;;;8.07;;
9007;SDS011;62813;51.424;6.762;2023-05-13T03:30:44;8.77;;;7.80;;
9007;SDS011;62813;51.424;6.762;2023-05-13T03:33:11;8.67;;;7.80;;
9007;SDS011;62813;51.424;6.762;2023-05-13T03:35:38;9.87;;;8.23;;
9007;SDS011;62813;51.424;6.762;2023-05-13T03:38:04;8.60;;;7.80;;
9007;SDS011;62813;51.424;6.762;2023-05-13T03:40:31;9.57;;;8.07;;
9007;SDS011;62813;51.424;6.762;2023-05-13T03:42:59;12.10;;;7.77;;
9007;SDS011;62813;51.424;6.762;2023-05-13T03:45:26;11.07;;;8.83;;
9007;SDS011;62813;51.424;6.762;2023-05-13T03:47:53;9.67;;;8.67;;
9007;SDS011;62813;51.424;6.762;2023-05-13T03:50:19;10.27;;;8.57;;
9007;SDS011;62813;51.424;6.762;2023-05-13T03:52:46;9.90;;;7.90;;
9007;SDS011;62813;51.424;6.762;2023-05-13T03:55:13;11.57;;;8.17;;
9007;SDS011;62813;51.424;6.762;2023-05-13T03:57:41;9.40;;;8.40;;
9007;SDS011;62813;51.424;6.762;2023-05-13T04:00:07;9.57;;;8.23;;
9007;SDS011;62813;51.424;6.762;2023-05-13T04:02:35;9.43;;;8.50;;
9007;SDS011;62813;51.424;6.762;2023-05-13T04:05:01;15.47;;;9.57;;
9007;SDS011;62813;51.424;6.762;2023-05-13T04:07:28;9.33;;;7.83;;
9007;SDS011;62813;51.424;6.762;2023-05-13T04:09:55;9.77;;;8.77;;
9007;SDS011;62813;51.424;6.762;2023-05-13T04:15:14;12.43;;;8.37;;
9007;SDS011;62813;51.424;6.762;2023-05-13T04:17:43;13.70;;;7.87;;
9007;SDS011;62813;51.424;6.762;2023-05-13T04:20:09;9.47;;;8.53;;
9007;SDS011;62813;51.424;6.762;2023-05-13T04:22:36;9.60;;;8.60;;
9007;SDS011;62813;51.424;6.762;2023-05-13T04:25:02;9.40;;;8.47;;
9007;SDS011;62813;51.424;6.762;2023-05-13T04:27:29;9.77;;;8.77;;
9007;SDS011;62813;51.424;6.762;2023-05-13T04:29:56;8.90;;;8.00;;
9007;SDS011;62813;51.424;6.762;2023-05-13T04:32:22;9.70;;;8.70;;
9007;SDS011;62813;51.424;6.762;2023-05-13T04:34:49;11.40;;;8.67;;
9007;SDS011;62813;51.424;6.762;2023-05-13T04:37:16;9.80;;;8.70;;
9007;SDS011;62813;51.424;6.762;2023-05-13T04:39:46;11.17;;;9.20;;
9007;SDS011;62813;51.424;6.762;2023-05-13T04:42:13;10.20;;;8.17;;
9007;SDS011;62813;51.424;6.762;2023-05-13T04:44:39;9.40;;;8.50;;
9007;SDS011;62813;51.424;6.762;2023-05-13T04:47:06;12.93;;;8.87;;
9007;SDS011;62813;51.424;6.762;2023-05-13T04:49:32;10.63;;;8.37;;
9007;SDS011;62813;51.424;6.762;2023-05-13T04:52:00;10.33;;;9.10;;
9007;SDS011;62813;51.424;6.762;2023-05-13T04:54:27;12.30;;;8.60;;
9007;SDS011;62813;51.424;6.762;2023-05-13T04:56:53;10.33;;;8.83;;
9007;SDS011;62813;51.424;6.762;2023-05-13T04:59:20;17.03;;;8.60;;
9007;SDS011;62813;51.424;6.762;2023-05-13T05:01:46;11.57;;;7.97;;
9007;SDS011;62813;51.424;6.762;2023-05-13T05:04:13;8.70;;;7.87;;
9007;SDS011;62813;51.424;6.762;2023-05-13T05:06:40;10.00;;;8.80;;
9007;SDS011;62813;51.424;6.762;2023-05-13T05:09:06;9.83;;;8.40;;
9007;SDS011;62813;51.424;6.762;2023-05-13T05:11:33;13.33;;;8.70;;
9007;SDS011;62813;51.424;6.762;2023-05-13T05:13:59;11.07;;;8.30;;
9007;SDS011;62813;51.424;6.762;2023-05-13T05:16:26;9.17;;;8.27;;
9007;SDS011;62813;51.424;6.762;2023-05-13T05:18:52;12.87;;;8.37;;
9007;SDS011;62813;51.424;6.762;2023-05-13T05:21:19;11.30;;;8.97;;
9007;SDS011;62813;51.424;6.762;2023-05-13T05:23:46;10.67;;;9.00;;
9007;SDS011;62813;51.424;6.762;2023-05-13T05:26:13;12.80;;;8.63;;
9007;SDS011;62813;51.424;6.762;2023-05-13T05:28:40;8.83;;;8.03;;
9007;SDS011;62813;51.424;6.762;2023-05-13T05:31:07;10.37;;;8.63;;
9007;SDS011;62813;51.424;6.762;2023-05-13T05:33:35;12.20;;;8.87;;
9007;SDS011;62813;51.424;6.762;2023-05-13T05:36:02;9.70;;;8.73;;
9007;SDS011;62813;51.424;6.762;2023-05-13T05:38:28;10.87;;;9.20;;
9007;SDS011;62813;51.424;6.762;2023-05-13T05:40:55;11.10;;;9.77;;
9007;SDS011;62813;51.424;6.762;2023-05-13T05:43:21;11.27;;;9.03;;
9007;SDS011;62813;51.424;6.762;2023-05-13T05:45:48;13.17;;;9.57;;
9007;SDS011;62813;51.424;6.762;2023-05-13T05:48:14;11.43;;;8.80;;
9007;SDS011;62813;51.424;6.762;2023-05-13T05:50:41;9.67;;;8.53;;
9007;SDS011;62813;51.424;6.762;2023-05-13T05:53:08;14.10;;;9.83;;
9007;SDS011;62813;51.424;6.762;2023-05-13T05:55:35;13.47;;;10.37;;
9007;SDS011;62813;51.424;6.762;2023-05-13T05:58:02;14.07;;;10.20;;
9007;SDS011;62813;51.424;6.762;2023-05-13T06:00:30;12.90;;;9.17;;
9007;SDS011;62813;51.424;6.762;2023-05-13T06:02:58;14.10;;;9.80;;
9007;SDS011;62813;51.424;6.762;2023-05-13T06:05:25;10.60;;;9.40;;
9007;SDS011;62813;51.424;6.762;2023-05-13T06:07:52;12.20;;;9.13;;
9007;SDS011;62813;51.424;6.762;2023-05-13T06:10:18;14.83;;;9.90;;
9007;SDS011;62813;51.424;6.762;2023-05-13T06:12:45;13.13;;;9.90;;
9007;SDS011;62813;51.424;6.762;2023-05-13T06:15:11;11.27;;;8.63;;
9007;SDS011;62813;51.424;6.762;2023-05-13T06:17:38;10.07;;;8.80;;
9007;SDS011;62813;51.424;6.762;2023-05-13T06:20:05;11.33;;;8.27;;
9007;SDS011;62813;51.424;6.762;2023-05-13T06:22:32;10.90;;;8.47;;
9007;SDS011;62813;51.424;6.762;2023-05-13T06:24:58;10.10;;;8.30;;
9007;SDS011;62813;51.424;6.762;2023-05-13T06:27:25;12.57;;;9.37;;
9007;SDS011;62813;51.424;6.762;2023-05-13T06:36:18;14.03;;;8.70;;
9007;SDS011;62813;51.424;6.762;2023-05-13T06:38:50;11.83;;;8.77;;
9007;SDS011;62813;51.424;6.762;2023-05-13T06:41:20;11.07;;;8.93;;
9007;SDS011;62813;51.424;6.762;2023-05-13T06:43:46;11.47;;;9.50;;
9007;SDS011;62813;51.424;6.762;2023-05-13T06:46:14;12.13;;;9.00;;
9007;SDS011;62813;51.424;6.762;2023-05-13T06:48:40;11.83;;;8.67;;
9007;SDS011;62813;51.424;6.762;2023-05-13T06:51:07;15.73;;;9.00;;
9007;SDS011;62813;51.424;6.762;2023-05-13T06:53:34;12.90;;;9.13;;
9007;SDS011;62813;51.424;6.762;2023-05-13T06:56:00;9.60;;;8.43;;
9007;SDS011;62813;51.424;6.762;2023-05-13T06:58:27;10.37;;;9.27;;
9007;SDS011;62813;51.424;6.762;2023-05-13T07:00:53;8.77;;;7.80;;
9007;SDS011;62813;51.424;6.762;2023-05-13T07:03:20;12.40;;;8.47;;
9007;SDS011;62813;51.424;6.762;2023-05-13T07:05:47;12.00;;;8.97;;
9007;SDS011;62813;51.424;6.762;2023-05-13T07:08:13;13.20;;;9.17;;
9007;SDS011;62813;51.424;6.762;2023-05-13T07:10:43;9.03;;;8.13;;
9007;SDS011;62813;51.424;6.762;2023-05-13T07:13:10;9.33;;;8.43;;
9007;SDS011;62813;51.424;6.762;2023-05-13T07:15:37;10.40;;;8.10;;
9007;SDS011;62813;51.424;6.762;2023-05-13T07:18:03;9.50;;;8.43;;
9007;SDS011;62813;51.424;6.762;2023-05-13T07:20:30;8.73;;;7.83;;
9007;SDS011;62813;51.424;6.762;2023-05-13T07:22:57;9.40;;;8.40;;
9007;SDS011;62813;51.424;6.762;2023-05-13T07:25:23;14.17;;;8.97;;
9007;SDS011;62813;51.424;6.762;2023-05-13T07:27:50;10.53;;;8.30;;
9007;SDS011;62813;51.424;6.762;2023-05-13T07:30:17;11.83;;;8.57;;
9007;SDS011;62813;51.424;6.762;2023-05-13T07:32:43;10.70;;;8.93;;
9007;SDS011;62813;51.424;6.762;2023-05-13T07:35:10;11.50;;;8.57;;
9007;SDS011;62813;51.424;6.762;2023-05-13T07:37:39;14.63;;;9.00;;
9007;SDS011;62813;51.424;6.762;2023-05-13T07:40:09;8.97;;;7.93;;
9007;SDS011;62813;51.424;6.762;2023-05-13T07:42:36;12.60;;;8.17;;
9007;SDS011;62813;51.424;6.762;2023-05-13T07:45:03;12.97;;;8.50;;
9007;SDS011;62813;51.424;6.762;2023-05-13T07:47:30;10.60;;;8.53;;
9007;SDS011;62813;51.424;6.762;2023-05-13T07:49:57;12.83;;;7.67;;
9007;SDS011;62813;51.424;6.762;2023-05-13T07:52:38;9.73;;;7.47;;
9007;SDS011;62813;51.424;6.762;2023-05-13T07:55:05;10.90;;;7.60;;
9007;SDS011;62813;51.424;6.762;2023-05-13T07:57:32;11.40;;;8.10;;
9007;SDS011;62813;51.424;6.762;2023-05-13T07:59:59;9.73;;;7.57;;
9007;SDS011;62813;51.424;6.762;2023-05-13T08:02:26;10.73;;;7.37;;
9007;SDS011;62813;51.424;6.762;2023-05-13T08:04:53;12.73;;;7.30;;
9007;SDS011;62813;51.424;6.762;2023-05-13T08:07:21;9.50;;;7.30;;
9007;SDS011;62813;51.424;6.762;2023-05-13T08:09:48;8.60;;;7.40;;
9007;SDS011;62813;51.424;6.762;2023-05-13T08:12:15;12.30;;;7.37;;
9007;SDS011;62813;51.424;6.762;2023-05-13T08:14:42;8.40;;;6.47;;
9007;SDS011;62813;51.424;6.762;2023-05-13T08:17:09;7.33;;;6.47;;
9007;SDS011;62813;51.424;6.762;2023-05-13T08:19:36;11.10;;;6.47;;
9007;SDS011;62813;51.424;6.762;2023-05-13T08:22:03;7.63;;;5.77;;
9007;SDS011;62813;51.424;6.762;2023-05-13T08:24:30;9.63;;;6.10;;
9007;SDS011;62813;51.424;6.762;2023-05-13T08:27:00;6.70;;;5.87;;
9007;SDS011;62813;51.424;6.762;2023-05-13T08:29:28;6.63;;;5.80;;
9007;SDS011;62813;51.424;6.762;2023-05-13T08:31:57;12.70;;;5.63;;
9007;SDS011;62813;51.424;6.762;2023-05-13T08:34:24;9.40;;;5.63;;
9007;SDS011;62813;51.424;6.762;2023-05-13T08:36:51;7.70;;;4.97;;
9007;SDS011;62813;51.424;6.762;2023-05-13T08:39:17;12.93;;;5.80;;
9007;SDS011;62813;51.424;6.762;2023-05-13T08:41:44;6.60;;;6.00;;
9007;SDS011;62813;51.424;6.762;2023-05-13T08:44:11;7.47;;;5.37;;
9007;SDS011;62813;51.424;6.762;2023-05-13T08:46:43;7.27;;;5.90;;
9007;SDS011;62813;51.424;6.762;2023-05-13T08:49:12;9.63;;;6.23;;
9007;SDS011;62813;51.424;6.762;2023-05-13T08:51:39;10.57;;;6.10;;
9007;SDS011;62813;51.424;6.762;2023-05-13T08:54:08;10.63;;;5.87;;
9007;SDS011;62813;51.424;6.762;2023-05-13T08:56:34;13.40;;;5.93;;
9007;SDS011;62813;51.424;6.762;2023-05-13T08:59:01;8.30;;;6.40;;
9007;SDS011;62813;51.424;6.762;2023-05-13T09:01:28;7.00;;;5.40;;
9007;SDS011;62813;51.424;6.762;2023-05-13T09:04:05;6.10;;;5.50;;
9007;SDS011;62813;51.424;6.762;2023-05-13T09:06:33;6.70;;;5.80;;
9007;SDS011;62813;51.424;6.762;2023-05-13T09:09:00;11.87;;;6.10;;
9007;SDS011;62813;51.424;6.762;2023-05-13T09:11:28;10.17;;;5.10;;
9007;SDS011;62813;51.424;6.762;2023-05-13T09:13:58;7.33;;;5.40;;
9007;SDS011;62813;51.424;6.762;2023-05-13T09:16:26;7.27;;;4.70;;
9007;SDS011;62813;51.424;6.762;2023-05-13T09:18:57;7.70;;;5.00;;
9007;SDS011;62813;51.424;6.762;2023-05-13T09:21:25;5.73;;;4.43;;
9007;SDS011;62813;51.424;6.762;2023-05-13T09:23:54;7.43;;;5.23;;
9007;SDS011;62813;51.424;6.762;2023-05-13T09:26:28;7.80;;;4.77;;
9007;SDS011;62813;51.424;6.762;2023-05-13T09:31:40;7.83;;;4.70;;
9007;SDS011;62813;51.424;6.762;2023-05-13T09:34:06;11.00;;;5.47;;
9007;SDS011;62813;51.424;6.762;2023-05-13T09:36:33;7.60;;;4.63;;
9007;SDS011;62813;51.424;6.762;2023-05-13T09:39:01;5.67;;;5.10;;
9007;SDS011;62813;51.424;6.762;2023-05-13T09:41:29;12.53;;;5.23;;
9007;SDS011;62813;51.424;6.762;2023-05-13T09:43:56;12.70;;;6.03;;
9007;SDS011;62813;51.424;6.762;2023-05-13T09:46:23;4.50;;;3.90;;
9007;SDS011;62813;51.424;6.762;2023-05-13T09:48:50;9.70;;;4.23;;
9007;SDS011;62813;51.424;6.762;2023-05-13T09:51:25;6.73;;;4.50;;
9007;SDS011;62813;51.424;6.762;2023-05-13T09:54:05;9.77;;;4.93;;
9007;SDS011;62813;51.424;6.762;2023-05-13T09:56:33;10.40;;;4.90;;
9007;SDS011;62813;51.424;6.762;2023-05-13T09:59:01;5.13;;;4.30;;
9007;SDS011;62813;51.424;6.762;2023-05-13T10:01:28;7.70;;;4.17;;
9007;SDS011;62813;51.424;6.762;2023-05-13T10:03:55;6.10;;;3.97;;
9007;SDS011;62813;51.424;6.762;2023-05-13T10:06:25;5.23;;;4.37;;
9007;SDS011;62813;51.424;6.762;2023-05-13T10:08:51;5.00;;;3.97;;
9007;SDS011;62813;51.424;6.762;2023-05-13T10:11:19;7.63;;;3.80;;
9007;SDS011;62813;51.424;6.762;2023-05-13T10:13:48;4.37;;;3.73;;
9007;SDS011;62813;51.424;6.762;2023-05-13T10:16:15;9.03;;;4.20;;
9007;SDS011;62813;51.424;6.762;2023-05-13T10:18:44;6.00;;;3.93;;
9007;SDS011;62813;51.424;6.762;2023-05-13T10:21:11;6.33;;;3.50;;
9007;SDS011;62813;51.424;6.762;2023-05-13T10:23:38;5.13;;;3.70;;
9007;SDS011;62813;51.424;6.762;2023-05-13T10:26:04;9.43;;;3.70;;
9007;SDS011;62813;51.424;6.762;2023-05-13T10:28:32;5.70;;;3.70;;
9007;SDS011;62813;51.424;6.762;2023-05-13T10:30:59;9.17;;;4.23;;
9007;SDS011;62813;51.424;6.762;2023-05-13T10:33:25;7.73;;;3.83;;
9007;SDS011;62813;51.424;6.762;2023-05-13T10:35:57;7.60;;;3.80;;
9007;SDS011;62813;51.424;6.762;2023-05-13T10:38:32;4.23;;;3.67;;
9007;SDS011;62813;51.424;6.762;2023-05-13T10:43:31;5.50;;;3.70;;
9007;SDS011;62813;51.424;6.762;2023-05-13T10:46:00;4.53;;;3.47;;
9007;SDS011;62813;51.424;6.762;2023-05-13T10:48:40;4.93;;;3.67;;
9007;SDS011;62813;51.424;6.762;2023-05-13T10:51:09;8.73;;;3.30;;
9007;SDS011;62813;51.424;6.762;2023-05-13T10:53:56;6.00;;;4.33;;
9007;SDS011;62813;51.424;6.762;2023-05-13T10:56:25;5.43;;;4.10;;
9007;SDS011;62813;51.424;6.762;2023-05-13T10:59:02;7.00;;;3.77;;
9007;SDS011;62813;51.424;6.762;2023-05-13T11:01:34;5.23;;;3.80;;
9007;SDS011;62813;51.424;6.762;2023-05-13T11:04:01;6.13;;;3.60;;
9007;SDS011;62813;51.424;6.762;2023-05-13T11:06:36;7.70;;;4.00;;
9007;SDS011;62813;51.424;6.762;2023-05-13T11:09:04;8.10;;;4.30;;
9007;SDS011;62813;51.424;6.762;2023-05-13T11:11:34;5.43;;;3.70;;
9007;SDS011;62813;51.424;6.762;2023-05-13T11:14:01;5.40;;;3.50;;
9007;SDS011;62813;51.424;6.762;2023-05-13T11:16:29;7.53;;;3.53;;
9007;SDS011;62813;51.424;6.762;2023-05-13T11:18:55;6.03;;;3.60;;
9007;SDS011;62813;51.424;6.762;2023-05-13T11:21:32;5.17;;;3.50;;
9007;SDS011;62813;51.424;6.762;2023-05-13T11:24:04;6.40;;;3.70;;
9007;SDS011;62813;51.424;6.762;2023-05-13T11:26:44;6.87;;;3.47;;
9007;SDS011;62813;51.424;6.762;2023-05-13T11:29:12;8.07;;;4.07;;
9007;SDS011;62813;51.424;6.762;2023-05-13T11:31:49;5.83;;;3.77;;
9007;SDS011;62813;51.424;6.762;2023-05-13T11:34:18;5.27;;;4.00;;
9007;SDS011;62813;51.424;6.762;2023-05-13T11:36:46;9.63;;;3.87;;
9007;SDS011;62813;51.424;6.762;2023-05-13T11:39:16;12.57;;;3.80;;
9007;SDS011;62813;51.424;6.762;2023-05-13T11:41:47;5.83;;;3.53;;
9007;SDS011;62813;51.424;6.762;2023-05-13T11:44:15;4.93;;;3.17;;
9007;SDS011;62813;51.424;6.762;2023-05-13T11:46:52;5.77;;;3.90;;
9007;SDS011;62813;51.424;6.762;2023-05-13T11:52:07;4.23;;;3.53;;
9007;SDS011;62813;51.424;6.762;2023-05-13T11:59:40;4.10;;;3.70;;
9007;SDS011;62813;51.424;6.762;2023-05-13T12:02:13;8.27;;;3.73;;
9007;SDS011;62813;51.424;6.762;2023-05-13T12:04:40;6.23;;;4.00;;
9007;SDS011;62813;51.424;6.762;2023-05-13T12:07:09;7.93;;;3.60;;
9007;SDS011;62813;51.424;6.762;2023-05-13T12:09:36;4.80;;;3.50;;
9007;SDS011;62813;51.424;6.762;2023-05-13T12:12:03;5.70;;;3.67;;
9007;SDS011;62813;51.424;6.762;2023-05-13T12:14:30;7.07;;;3.43;;
9007;SDS011;62813;51.424;6.762;2023-05-13T12:16:56;3.80;;;3.00;;
9007;SDS011;62813;51.424;6.762;2023-05-13T12:19:23;8.40;;;3.40;;
9007;SDS011;62813;51.424;6.762;2023-05-13T12:21:49;7.10;;;3.30;;
9007;SDS011;62813;51.424;6.762;2023-05-13T12:24:20;4.27;;;3.53;;
9007;SDS011;62813;51.424;6.762;2023-05-13T12:26:47;10.37;;;3.37;;
9007;SDS011;62813;51.424;6.762;2023-05-13T12:29:14;7.10;;;3.93;;
9007;SDS011;62813;51.424;6.762;2023-05-13T12:31:41;6.30;;;3.70;;
9007;SDS011;62813;51.424;6.762;2023-05-13T12:34:08;7.20;;;4.03;;
9007;SDS011;62813;51.424;6.762;2023-05-13T12:36:36;4.50;;;4.00;;
9007;SDS011;62813;51.424;6.762;2023-05-13T12:39:07;4.30;;;3.70;;
9007;SDS011;62813;51.424;6.762;2023-05-13T12:41:37;11.43;;;3.67;;
9007;SDS011;62813;51.424;6.762;2023-05-13T12:44:08;6.50;;;4.07;;
9007;SDS011;62813;51.424;6.762;2023-05-13T12:46:34;8.10;;;3.83;;
9007;SDS011;62813;51.424;6.762;2023-05-13T12:49:02;7.70;;;3.80;;
9007;SDS011;62813;51.424;6.762;2023-05-13T12:51:29;6.73;;;3.93;;
9007;SDS011;62813;51.424;6.762;2023-05-13T12:53:56;6.17;;;3.77;;
9007;SDS011;62813;51.424;6.762;2023-05-13T12:56:23;5.50;;;4.03;;
9007;SDS011;62813;51.424;6.762;2023-05-13T12:58:53;7.33;;;3.90;;
9007;SDS011;62813;51.424;6.762;2023-05-13T13:01:20;5.10;;;3.50;;
9007;SDS011;62813;51.424;6.762;2023-05-13T13:03:47;7.97;;;3.50;;
9007;SDS011;62813;51.424;6.762;2023-05-13T13:06:14;7.53;;;3.67;;
9007;SDS011;62813;51.424;6.762;2023-05-13T13:08:41;6.00;;;4.50;;
9007;SDS011;62813;51.424;6.762;2023-05-13T13:11:07;7.37;;;3.50;;
9007;SDS011;62813;51.424;6.762;2023-05-13T13:13:34;8.87;;;3.70;;
9007;SDS011;62813;51.424;6.762;2023-05-13T13:16:04;5.87;;;4.40;;
9007;SDS011;62813;51.424;6.762;2023-05-13T13:18:31;5.60;;;3.80;;
9007;SDS011;62813;51.424;6.762;2023-05-13T13:20:58;5.83;;;3.83;;
9007;SDS011;62813;51.424;6.762;2023-05-13T13:23:25;5.60;;;4.03;;
9007;SDS011;62813;51.424;6.762;2023-05-13T13:25:51;4.40;;;3.40;;
9007;SDS011;62813;51.424;6.762;2023-05-13T13:28:18;8.07;;;3.67;;
9007;SDS011;62813;51.424;6.762;2023-05-13T13:30:44;6.83;;;3.87;;
9007;SDS011;62813;51.424;6.762;2023-05-13T13:33:13;5.37;;;3.80;;
9007;SDS011;62813;51.424;6.762;2023-05-13T13:35:41;6.97;;;3.73;;
9007;SDS011;62813;51.424;6.762;2023-05-13T13:38:08;4.37;;;3.50;;
9007;SDS011;62813;51.424;6.762;2023-05-13T13:40:35;8.63;;;3.73;;
9007;SDS011;62813;51.424;6.762;2023-05-13T13:43:02;6.23;;;3.90;;
9007;SDS011;62813;51.424;6.762;2023-05-13T13:45:29;6.90;;;4.20;;
9007;SDS011;62813;51.424;6.762;2023-05-13T13:47:55;6.73;;;3.60;;
9007;SDS011;62813;51.424;6.762;2023-05-13T13:50:24;5.57;;;3.60;;
9007;SDS011;62813;51.424;6.762;2023-05-13T13:52:51;4.43;;;3.40;;
9007;SDS011;62813;51.424;6.762;2023-05-13T13:55:19;7.47;;;3.97;;
9007;SDS011;62813;51.424;6.762;2023-05-13T13:57:45;5.93;;;4.10;;
9007;SDS011;62813;51.424;6.762;2023-05-13T14:00:13;5.40;;;4.17;;
9007;SDS011;62813;51.424;6.762;2023-05-13T14:02:40;4.30;;;3.70;;
9007;SDS011;62813;51.424;6.762;2023-05-13T14:05:07;11.67;;;3.87;;
9007;SDS011;62813;51.424;6.762;2023-05-13T14:07:34;5.33;;;3.80;;
9007;SDS011;62813;51.424;6.762;2023-05-13T14:10:01;9.10;;;3.40;;
9007;SDS011;62813;51.424;6.762;2023-05-13T14:12:28;7.37;;;3.67;;
9007;SDS011;62813;51.424;6.762;2023-05-13T14:14:55;4.57;;;3.50;;
9007;SDS011;62813;51.424;6.762;2023-05-13T14:17:22;10.90;;;3.17;;
9007;SDS011;62813;51.424;6.762;2023-05-13T14:19:48;6.50;;;3.90;;
9007;SDS011;62813;51.424;6.762;2023-05-13T14:22:21;4.47;;;3.03;;
9007;SDS011;62813;51.424;6.762;2023-05-13T14:24:51;12.07;;;8.53;;
9007;SDS011;62813;51.424;6.762;2023-05-13T14:27:18;8.57;;;7.23;;
9007;SDS011;62813;51.424;6.762;2023-05-13T14:29:47;6.00;;;4.07;;
9007;SDS011;62813;51.424;6.762;2023-05-13T14:32:14;7.50;;;3.93;;
9007;SDS011;62813;51.424;6.762;2023-05-13T14:34:40;6.97;;;5.30;;
9007;SDS011;62813;51.424;6.762;2023-05-13T14:37:07;8.33;;;5.40;;
9007;SDS011;62813;51.424;6.762;2023-05-13T14:39:34;4.20;;;3.40;;
9007;SDS011;62813;51.424;6.762;2023-05-13T14:42:00;6.40;;;5.33;;
9007;SDS011;62813;51.424;6.762;2023-05-13T14:44:27;6.37;;;3.70;;
9007;SDS011;62813;51.424;6.762;2023-05-13T14:46:53;3.60;;;3.30;;
9007;SDS011;62813;51.424;6.762;2023-05-13T14:49:20;5.87;;;3.97;;
9007;SDS011;62813;51.424;6.762;2023-05-13T14:51:46;6.17;;;3.70;;
9007;SDS011;62813;51.424;6.762;2023-05-13T14:54:13;7.50;;;3.70;;
9007;SDS011;62813;51.424;6.762;2023-05-13T14:56:39;7.77;;;3.53;;
9007;SDS011;62813;51.424;6.762;2023-05-13T14:59:06;6.63;;;4.13;;
9007;SDS011;62813;51.424;6.762;2023-05-13T15:01:33;5.87;;;4.17;;
9007;SDS011;62813;51.424;6.762;2023-05-13T15:03:59;8.13;;;5.10;;
9007;SDS011;62813;51.424;6.762;2023-05-13T15:06:26;8.17;;;4.60;;
9007;SDS011;62813;51.424;6.762;2023-05-13T15:08:54;6.80;;;4.50;;
9007;SDS011;62813;51.424;6.762;2023-05-13T15:11:24;4.77;;;4.03;;
9007;SDS011;62813;51.424;6.762;2023-05-13T15:13:50;5.40;;;4.67;;
9007;SDS011;62813;51.424;6.762;2023-05-13T15:16:17;6.63;;;5.23;;
9007;SDS011;62813;51.424;6.762;2023-05-13T15:18:43;5.60;;;4.63;;
9007;SDS011;62813;51.424;6.762;2023-05-13T15:21:10;8.83;;;5.80;;
9007;SDS011;62813;51.424;6.762;2023-05-13T15:23:37;7.47;;;4.70;;
9007;SDS011;62813;51.424;6.762;2023-05-13T15:26:03;6.97;;;4.60;;